createdAt,value
2022-12-03T00:02:58.042Z,77.6
2022-12-03T00:05:01.067Z,56
2022-12-03T00:07:03.909Z,67.1
2022-12-03T00:09:10.130Z,75.6
2022-12-03T00:11:13.119Z,109.5
2022-12-03T00:15:34.313Z,76.3
2022-12-03T00:17:37.237Z,64.7
2022-12-03T00:21:46.457Z,80.8
2022-12-03T00:23:49.445Z,71.9
2022-12-03T00:25:52.453Z,58.7
2022-12-03T00:27:55.469Z,62.2
2022-12-03T00:29:58.460Z,60.7
2022-12-03T00:32:01.471Z,74.4
2022-12-03T00:34:04.472Z,76
2022-12-03T00:36:10.708Z,88.1
2022-12-03T00:38:13.659Z,64.1
2022-12-03T00:40:16.675Z,66.9
2022-12-03T00:42:19.678Z,94.7
2022-12-03T00:44:22.676Z,62.3
2022-12-03T00:46:25.676Z,65.7
2022-12-03T00:50:34.856Z,67.1
2022-12-03T00:52:37.881Z,79.6
2022-12-03T00:54:40.879Z,47.6
2022-12-03T00:56:43.910Z,63.5
2022-12-03T00:58:46.853Z,61.6
2022-12-03T01:00:49.846Z,50.8
2022-12-03T01:02:52.857Z,66.2
2022-12-03T01:04:59.180Z,53.5
2022-12-03T01:07:02.080Z,58
2022-12-03T01:09:05.085Z,60
2022-12-03T01:10:08.167Z,76.5
2022-12-03T01:12:11.202Z,62.3
2022-12-03T01:14:14.192Z,74.6
2022-12-03T01:16:17.190Z,69
2022-12-03T01:18:23.378Z,59.2
2022-12-03T01:20:26.411Z,69.5
2022-12-03T01:22:29.554Z,64.9
2022-12-03T01:24:32.411Z,69.2
2022-12-03T01:26:35.395Z,82.7
2022-12-03T01:28:38.411Z,74.1
2022-12-03T01:30:41.424Z,91.4
2022-12-03T01:32:47.768Z,72.1
2022-12-03T01:34:51.166Z,64
2022-12-03T01:36:53.623Z,82.6
2022-12-03T01:38:56.640Z,59.7
2022-12-03T01:43:02.627Z,66
2022-12-03T01:45:05.635Z,61.2
2022-12-03T01:47:11.813Z,62.8
2022-12-03T01:49:14.824Z,74.7
2022-12-03T01:51:17.829Z,65.9
2022-12-03T01:53:20.831Z,60.3
2022-12-03T01:55:23.816Z,53.6
2022-12-03T01:57:26.826Z,84.6
2022-12-03T01:59:29.821Z,115.4
2022-12-03T02:01:36.098Z,69.4
2022-12-03T02:03:39.267Z,45.9
2022-12-03T02:05:42.014Z,115.7
2022-12-03T02:06:45.128Z,85.1
2022-12-03T02:08:48.165Z,59.2
2022-12-03T02:12:54.184Z,61.4
2022-12-03T02:15:00.365Z,58.9
2022-12-03T02:17:03.370Z,53.5
2022-12-03T02:23:12.385Z,120.8
2022-12-03T02:25:15.381Z,75.4
2022-12-03T02:27:18.396Z,93.5
2022-12-03T02:29:24.655Z,96.9
2022-12-03T02:31:27.733Z,61.7
2022-12-03T02:33:30.629Z,59.1
2022-12-03T02:35:33.610Z,103.5
2022-12-03T02:37:36.630Z,71.5
2022-12-03T02:39:39.636Z,77.7
2022-12-03T02:41:42.650Z,82
2022-12-03T02:43:49.525Z,56.3
2022-12-03T02:45:52.516Z,58
2022-12-03T02:54:04.556Z,58.6
2022-12-03T02:58:13.772Z,53.4
2022-12-03T03:00:16.786Z,41.4
2022-12-03T03:02:19.866Z,51.3
2022-12-03T03:03:22.890Z,57.9
2022-12-03T03:15:44.149Z,51.3
2022-12-03T03:17:47.140Z,54
2022-12-03T03:21:53.171Z,56.1
2022-12-03T03:23:56.169Z,48.1
2022-12-03T03:26:02.397Z,50
2022-12-03T03:28:05.389Z,49.6
2022-12-03T03:30:08.437Z,45.2
2022-12-03T03:32:11.498Z,48.9
2022-12-03T03:34:14.410Z,58.2
2022-12-03T03:36:17.406Z,55.4
2022-12-03T03:38:20.426Z,50.7
2022-12-03T03:40:26.646Z,54
2022-12-03T03:42:29.643Z,63.5
2022-12-03T03:44:32.647Z,49.1
2022-12-03T03:46:35.665Z,55.6
2022-12-03T03:48:38.669Z,62.2
2022-12-03T03:50:41.694Z,53.8
2022-12-03T03:52:44.696Z,46
2022-12-03T03:54:51.167Z,59.3
2022-12-03T03:56:53.921Z,56.5
2022-12-03T03:58:56.927Z,58.9
2022-12-03T04:01:21.171Z,50.6
2022-12-03T04:03:24.094Z,59.9
2022-12-03T04:05:27.103Z,66.3
2022-12-03T04:07:33.389Z,71.3
2022-12-03T04:09:36.370Z,53.8
2022-12-03T04:11:39.365Z,60.8
2022-12-03T04:13:42.362Z,57.3
2022-12-03T04:15:45.373Z,71
2022-12-03T04:17:48.374Z,61.3
2022-12-03T04:19:53.010Z,67.2
2022-12-03T04:21:59.177Z,61
2022-12-03T04:24:02.171Z,58.3
2022-12-03T04:26:05.186Z,58.6
2022-12-03T04:28:08.192Z,63
2022-12-03T04:30:11.211Z,51.4
2022-12-03T04:32:14.211Z,53.7
2022-12-03T04:34:17.211Z,52.5
2022-12-03T04:36:23.432Z,60.5
2022-12-03T04:38:26.432Z,73.6
2022-12-03T04:40:29.454Z,63.9
2022-12-03T04:42:32.453Z,51.1
2022-12-03T04:44:35.415Z,60.7
2022-12-03T04:46:38.428Z,63.9
2022-12-03T04:48:41.439Z,59
2022-12-03T04:50:47.691Z,51.7
2022-12-03T04:52:50.818Z,58
2022-12-03T04:54:53.842Z,53
2022-12-03T04:55:56.749Z,65.9
2022-12-03T04:57:59.726Z,57.9
2022-12-03T05:00:02.750Z,60.1
2022-12-03T05:02:05.850Z,65.1
2022-12-03T05:04:11.968Z,61.7
2022-12-03T05:06:14.944Z,59.7
2022-12-03T05:08:18.007Z,68.1
2022-12-03T05:10:20.940Z,47.1
2022-12-03T05:12:23.929Z,57.8
2022-12-03T05:14:26.917Z,57.5
2022-12-03T05:18:36.107Z,51
2022-12-03T05:20:39.111Z,37.3
2022-12-03T05:22:42.088Z,46.1
2022-12-03T05:33:00.271Z,52.7
2022-12-03T05:35:03.256Z,45.7
2022-12-03T05:37:06.238Z,56.9
2022-12-03T05:39:09.258Z,44.9
2022-12-03T05:41:12.249Z,46.8
2022-12-03T05:43:15.242Z,59.6
2022-12-03T05:45:18.217Z,49.4
2022-12-03T05:47:24.432Z,54.8
2022-12-03T05:49:27.451Z,35.4
2022-12-03T05:51:30.456Z,58.9
2022-12-03T05:52:33.543Z,46.1
2022-12-03T05:54:36.543Z,46.7
2022-12-03T05:56:39.536Z,54.5
2022-12-03T05:58:42.511Z,55.1
2022-12-03T06:00:48.749Z,51.4
2022-12-03T06:02:51.860Z,56
2022-12-03T06:04:55.068Z,64.1
2022-12-03T06:09:00.766Z,56.3
2022-12-03T06:11:03.762Z,44.7
2022-12-03T06:13:06.730Z,65.3
2022-12-03T06:15:12.940Z,72
2022-12-03T06:17:15.950Z,42.6
2022-12-03T06:21:21.951Z,49.8
2022-12-03T06:23:24.940Z,60.4
2022-12-03T06:25:27.906Z,57.9
2022-12-03T06:27:30.935Z,37.4
2022-12-03T06:29:37.133Z,48.9
2022-12-03T06:31:40.217Z,43.1
2022-12-03T06:33:43.103Z,58.8
2022-12-03T06:35:46.116Z,63.4
2022-12-03T06:37:49.130Z,57.4
2022-12-03T06:39:52.125Z,61.3
2022-12-03T06:41:55.109Z,56
2022-12-03T06:44:01.307Z,58.9
2022-12-03T06:46:04.330Z,58.4
2022-12-03T06:48:07.312Z,51
2022-12-03T06:49:10.420Z,63.7
2022-12-03T06:51:13.398Z,52
2022-12-03T06:53:16.398Z,60.6
2022-12-03T06:55:19.416Z,47.1
2022-12-03T06:57:25.630Z,64.6
2022-12-03T06:59:28.666Z,60.3
2022-12-03T07:01:31.711Z,50.3
2022-12-03T07:03:34.612Z,55.5
2022-12-03T07:05:37.652Z,58.2
2022-12-03T07:07:40.664Z,54.5
2022-12-03T07:09:43.615Z,64.1
2022-12-03T07:11:49.815Z,63.3
2022-12-03T07:13:52.787Z,69.2
2022-12-03T07:15:55.838Z,58.9
2022-12-03T07:17:58.798Z,62.2
2022-12-03T07:20:01.782Z,57.4
2022-12-03T07:22:04.772Z,78.7
2022-12-03T07:24:07.770Z,60.1
2022-12-03T07:26:13.994Z,64.4
2022-12-03T07:28:17.009Z,53.7
2022-12-03T07:30:19.981Z,66.6
2022-12-03T07:32:22.948Z,61.2
2022-12-03T07:34:25.951Z,60.1
2022-12-03T07:36:28.965Z,61.8
2022-12-03T07:40:38.137Z,81.2
2022-12-03T07:42:41.136Z,66.4
2022-12-03T07:44:44.120Z,59.2
2022-12-03T07:47:14.087Z,59.3
2022-12-03T07:49:17.093Z,65.6
2022-12-03T07:51:20.062Z,61.6
2022-12-03T07:57:32.236Z,64
2022-12-03T07:59:35.228Z,58.2
2022-12-03T08:01:38.263Z,69.9
2022-12-03T08:05:44.172Z,63.9
2022-12-03T08:09:53.352Z,54.7
2022-12-03T08:16:02.388Z,70.5
2022-12-03T08:18:05.294Z,53.8
2022-12-03T08:22:14.451Z,54.8
2022-12-03T08:24:17.438Z,74.3
2022-12-03T08:28:23.406Z,52.9
2022-12-03T08:34:32.331Z,65.6
2022-12-03T08:38:41.514Z,57
2022-12-03T08:40:44.488Z,70.4
2022-12-03T08:41:47.601Z,66.8
2022-12-03T08:45:53.627Z,70.4
2022-12-03T08:47:56.528Z,67.8
2022-12-03T08:50:02.729Z,62.2
2022-12-03T08:52:05.710Z,59.9
2022-12-03T08:54:08.677Z,70.9
2022-12-03T08:58:14.645Z,59.6
2022-12-03T09:00:17.605Z,71.9
2022-12-03T09:02:20.607Z,52.5
2022-12-03T09:04:26.899Z,72.2
2022-12-03T09:06:29.795Z,64.8
2022-12-03T09:08:32.768Z,55.1
2022-12-03T09:10:35.713Z,70.6
2022-12-03T09:12:38.704Z,60.8
2022-12-03T09:14:41.697Z,55.1
2022-12-03T09:16:44.727Z,56.4
2022-12-03T09:18:50.851Z,74.9
2022-12-03T09:20:53.850Z,64.4
2022-12-03T09:22:56.831Z,59.6
2022-12-03T09:27:02.798Z,58.4
2022-12-03T09:31:08.704Z,51.6
2022-12-03T09:38:24.002Z,65.9
2022-12-03T09:40:26.975Z,55.3
2022-12-03T09:42:29.936Z,69.4
2022-12-03T09:44:32.906Z,67.9
2022-12-03T09:46:39.106Z,51.9
2022-12-03T09:48:42.093Z,63.1
2022-12-03T09:50:45.067Z,75.3
2022-12-03T09:52:48.044Z,72.5
2022-12-03T09:54:51.012Z,58.1
2022-12-03T09:56:54.000Z,68.7
2022-12-03T09:58:56.952Z,66
2022-12-03T10:01:03.266Z,67.3
2022-12-03T10:03:06.137Z,48.6
2022-12-03T10:05:09.216Z,58.3
2022-12-03T10:07:12.099Z,56.5
2022-12-03T10:09:15.048Z,64.5
2022-12-03T10:11:18.013Z,57.4
2022-12-03T10:13:25.676Z,62.4
2022-12-03T10:15:28.767Z,58.3
2022-12-03T10:17:31.725Z,68.7
2022-12-03T10:19:34.697Z,67.4
2022-12-03T10:21:37.702Z,65.2
2022-12-03T10:23:40.686Z,51.3
2022-12-03T10:25:43.655Z,68.1
2022-12-03T10:27:46.638Z,42.7
2022-12-03T10:29:53.038Z,52.4
2022-12-03T10:31:55.797Z,48.2
2022-12-03T10:33:58.774Z,45.3
2022-12-03T10:39:07.783Z,40.5
2022-12-03T10:41:10.765Z,30.1
2022-12-03T10:43:16.949Z,47.7
2022-12-03T10:45:19.894Z,44.9
2022-12-03T10:47:23.054Z,51.5
2022-12-03T10:49:25.846Z,59.1
2022-12-03T10:51:28.805Z,45.1
2022-12-03T10:55:34.748Z,43.7
2022-12-03T11:01:46.949Z,51.3
2022-12-03T11:07:55.857Z,53.3
2022-12-03T11:09:58.721Z,45.1
2022-12-03T11:20:22.238Z,77.2
2022-12-03T11:26:28.894Z,56.5
2022-12-03T11:28:31.870Z,52.7
2022-12-03T11:30:34.836Z,67.6
2022-12-03T11:33:04.775Z,52.6
2022-12-03T11:35:07.758Z,47.3
2022-12-03T11:37:10.695Z,53.4
2022-12-03T11:39:16.891Z,48.6
2022-12-03T11:41:19.878Z,46.5
2022-12-03T11:43:22.865Z,57.2
2022-12-03T11:45:25.803Z,52.7
2022-12-03T11:47:28.777Z,53.2
2022-12-03T11:49:31.774Z,54.2
2022-12-03T11:51:34.727Z,46.8
2022-12-03T11:53:40.938Z,65.5
2022-12-03T11:55:43.857Z,63.4
2022-12-03T11:57:46.831Z,63.8
2022-12-03T11:59:49.819Z,72.1
2022-12-03T12:01:52.761Z,72.1
2022-12-03T12:03:55.843Z,63.2
2022-12-03T12:05:58.676Z,62.4
2022-12-03T12:10:07.824Z,72.2
2022-12-03T12:12:10.807Z,90.1
2022-12-03T12:14:13.772Z,86
2022-12-03T12:18:19.685Z,88.1
2022-12-03T12:20:22.654Z,83
2022-12-03T12:22:28.848Z,95
2022-12-03T12:24:31.772Z,98.5
2022-12-03T12:27:37.849Z,94.8
2022-12-03T12:29:40.807Z,83.6
2022-12-03T12:31:44.004Z,93.9
2022-12-03T12:33:46.733Z,107.8
2022-12-03T12:35:52.890Z,78.2
2022-12-03T12:37:59.536Z,83.2
2022-12-03T12:39:58.822Z,86.6
2022-12-03T12:42:01.820Z,86
2022-12-03T12:44:04.735Z,86.2
2022-12-03T12:46:38.666Z,104.2
2022-12-03T12:48:10.682Z,98.9
2022-12-03T12:50:16.853Z,81.2
2022-12-03T12:52:19.832Z,87.9
2022-12-03T12:56:25.700Z,73.8
2022-12-03T13:00:31.723Z,62.9
2022-12-03T13:02:34.656Z,70
2022-12-03T13:04:40.750Z,46.6
2022-12-03T13:08:46.664Z,60.7
2022-12-03T13:12:52.568Z,61.4
2022-12-03T13:14:55.514Z,60.5
2022-12-03T13:23:10.550Z,49.1
2022-12-03T13:24:13.648Z,62.2
2022-12-03T13:26:30.366Z,53.4
2022-12-03T13:28:19.586Z,45.2
2022-12-03T13:30:22.559Z,55
2022-12-03T13:32:28.715Z,43.5
2022-12-03T13:34:31.666Z,48.9
2022-12-03T13:36:34.650Z,51.4
2022-12-03T13:38:37.606Z,49.5
2022-12-03T13:40:40.561Z,58.7
2022-12-03T13:42:43.488Z,48.1
2022-12-03T13:44:46.451Z,53.2
2022-12-03T13:48:58.757Z,42.1
2022-12-03T13:50:58.541Z,69
2022-12-03T13:57:07.414Z,46.6
2022-12-03T13:59:10.402Z,56.6
2022-12-03T14:01:16.615Z,54.9
2022-12-03T14:03:19.499Z,65.5
2022-12-03T14:05:22.489Z,54.3
2022-12-03T14:07:25.484Z,62.5
2022-12-03T14:09:28.393Z,58.6
2022-12-03T14:11:31.338Z,69
2022-12-03T14:13:34.297Z,64.8
2022-12-03T14:15:40.475Z,62.6
2022-12-03T14:17:43.433Z,88.1
2022-12-03T14:19:46.582Z,72.3
2022-12-03T14:22:57.668Z,83.6
2022-12-03T14:24:55.395Z,76.6
2022-12-03T14:26:58.345Z,74.9
2022-12-03T14:31:07.478Z,76
2022-12-03T14:33:10.434Z,84.9
2022-12-03T14:35:13.421Z,89.6
2022-12-03T14:37:16.356Z,86.8
2022-12-03T14:39:19.333Z,105
2022-12-03T14:43:28.427Z,81.4
2022-12-03T14:45:31.490Z,96.5
2022-12-03T14:49:37.286Z,102.3
2022-12-03T14:55:46.153Z,98.8
2022-12-03T14:59:55.462Z,78.5
2022-12-03T15:01:58.374Z,82.4
2022-12-03T15:08:07.128Z,95.2
2022-12-03T15:10:10.014Z,112.1
2022-12-03T15:12:16.188Z,107.8
2022-12-03T15:14:19.132Z,96.2
2022-12-03T15:16:22.116Z,89.7
2022-12-03T15:18:52.027Z,91.2
2022-12-03T15:20:54.972Z,85
2022-12-03T15:22:57.932Z,83.3
2022-12-03T15:25:04.133Z,95.5
2022-12-03T15:27:07.034Z,96.7
2022-12-03T15:29:09.996Z,104.5
2022-12-03T15:33:15.858Z,100.4
2022-12-03T15:35:18.842Z,95.8
2022-12-03T15:39:27.926Z,89.6
2022-12-03T15:41:30.861Z,96.8
2022-12-03T15:45:36.656Z,126
2022-12-03T15:47:39.600Z,97.7
2022-12-03T15:49:42.562Z,94.3
2022-12-03T15:51:45.473Z,91.8
2022-12-03T15:55:54.578Z,89
2022-12-03T15:57:57.531Z,86.8
2022-12-03T16:08:17.137Z,83
2022-12-03T16:10:20.027Z,91
2022-12-03T16:12:22.974Z,88.3
2022-12-03T16:13:26.058Z,96.3
2022-12-03T16:15:29.019Z,96
2022-12-03T16:17:31.992Z,88.7
2022-12-03T16:19:34.941Z,90.4
2022-12-03T16:21:41.120Z,97.7
2022-12-03T16:23:44.067Z,99.6
2022-12-03T16:25:47.023Z,77.4
2022-12-03T16:27:50.004Z,79.7
2022-12-03T16:29:53.291Z,99.7
2022-12-03T16:31:55.931Z,87.2
2022-12-03T16:33:58.887Z,111.9
2022-12-03T16:36:05.144Z,93.2
2022-12-03T16:40:11.010Z,93.1
2022-12-03T16:48:22.884Z,100.4
2022-12-03T16:50:30.510Z,81.7
2022-12-03T16:52:31.997Z,110.5
2022-12-03T16:54:34.946Z,90.3
2022-12-03T16:56:37.919Z,153.2
2022-12-03T17:08:58.900Z,94.9
2022-12-03T17:10:01.979Z,83.8
2022-12-03T17:12:04.932Z,115.4
2022-12-03T17:14:07.893Z,100.6
2022-12-03T17:16:10.878Z,102.7
2022-12-03T17:18:17.041Z,105.1
2022-12-03T17:20:20.253Z,103.8
2022-12-03T17:22:23.216Z,79.7
2022-12-03T17:24:26.166Z,92.9
2022-12-03T17:26:29.163Z,98.2
2022-12-03T17:28:32.095Z,90.1
2022-12-03T17:30:35.072Z,82.7
2022-12-03T17:32:41.224Z,89.3
2022-12-03T17:34:44.197Z,90.1
2022-12-03T17:36:47.140Z,86.9
2022-12-03T17:38:50.119Z,96.6
2022-12-03T17:44:58.987Z,81.7
2022-12-03T17:49:08.091Z,78.8
2022-12-03T17:51:11.064Z,94.3
2022-12-03T17:53:14.005Z,88
2022-12-03T18:01:29.046Z,86.2
2022-12-03T18:03:32.072Z,80.7
2022-12-03T18:05:34.963Z,80.1
2022-12-03T18:06:38.049Z,73.1
2022-12-03T18:14:53.052Z,85.6
2022-12-03T18:19:03.256Z,80.8
2022-12-03T18:25:07.796Z,81.3
2022-12-03T18:27:10.768Z,85.1
2022-12-03T18:29:16.906Z,82.9
2022-12-03T18:31:19.894Z,81.9
2022-12-03T18:33:22.813Z,93.5
2022-12-03T18:35:25.755Z,74.7
2022-12-03T18:37:28.710Z,77
2022-12-03T18:39:31.633Z,75.8
2022-12-03T18:41:34.591Z,74.5
2022-12-03T18:43:40.763Z,88.4
2022-12-03T18:45:43.695Z,89.6
2022-12-03T18:49:49.595Z,81.9
2022-12-03T18:55:58.439Z,80.6
2022-12-03T18:58:04.587Z,81.1
2022-12-03T19:02:10.559Z,89
2022-12-03T19:04:40.499Z,92.6
2022-12-03T19:10:52.531Z,91.6
2022-12-03T19:14:58.417Z,81.3
2022-12-03T19:23:10.241Z,102.7
2022-12-03T19:25:16.378Z,70
2022-12-03T19:29:22.243Z,66.9
2022-12-03T19:33:28.532Z,86.8
2022-12-03T19:35:31.124Z,86.7
2022-12-03T19:37:34.009Z,77.8
2022-12-03T19:39:40.173Z,78.9
2022-12-03T19:41:43.129Z,68.1
2022-12-03T19:45:49.094Z,65.2
2022-12-03T19:47:51.965Z,72.3
2022-12-03T19:49:55.334Z,91.5
2022-12-03T19:51:57.844Z,75.5
2022-12-03T19:54:04.015Z,90.5
2022-12-03T19:56:06.925Z,71.8
2022-12-03T19:58:09.883Z,70.8
2022-12-03T19:59:12.956Z,66
2022-12-03T20:01:15.994Z,78.4
2022-12-03T20:03:18.862Z,74.8
2022-12-03T20:05:21.782Z,64.2
2022-12-03T20:07:28.053Z,65.5
2022-12-03T20:09:30.891Z,79.3
2022-12-03T20:11:33.866Z,82
2022-12-03T20:15:39.705Z,78.4
2022-12-03T20:17:42.649Z,75.3
2022-12-03T20:19:45.637Z,76.5
2022-12-03T20:21:51.784Z,73.4
2022-12-03T20:23:54.704Z,67.3
2022-12-03T20:25:57.652Z,81.1
2022-12-03T20:28:00.609Z,98.2
2022-12-03T20:30:03.528Z,71
2022-12-03T20:32:06.566Z,80.1
2022-12-03T20:34:09.439Z,68.5
2022-12-03T20:38:18.561Z,74.3
2022-12-03T20:40:21.494Z,89.1
2022-12-03T20:42:24.415Z,77.4
2022-12-03T20:44:27.371Z,78.5
2022-12-03T20:46:30.451Z,69.4
2022-12-03T20:48:33.240Z,85.3
2022-12-03T20:50:39.427Z,88.1
2022-12-03T20:52:52.895Z,87
2022-12-03T20:54:45.303Z,95.7
2022-12-03T20:55:48.338Z,82.5
2022-12-03T20:57:51.287Z,87.6
2022-12-03T20:59:54.502Z,89.1
2022-12-03T21:01:57.366Z,96
2022-12-03T21:04:03.347Z,101.2
2022-12-03T21:06:06.274Z,94.1
2022-12-03T21:08:09.314Z,80.4
2022-12-03T21:10:12.166Z,88
2022-12-03T21:12:15.244Z,79.5
2022-12-03T21:14:18.004Z,77.6
2022-12-03T21:16:34.247Z,93.7
2022-12-03T21:18:27.128Z,84.9
2022-12-03T21:20:30.073Z,89.5
2022-12-03T21:22:33.006Z,90.2
2022-12-03T21:24:35.932Z,86.7
2022-12-03T21:26:38.872Z,92.8
2022-12-03T21:28:41.800Z,83.3
2022-12-03T21:38:59.706Z,107.9
2022-12-03T21:43:05.542Z,95.1
2022-12-03T21:45:08.484Z,105.4
2022-12-03T21:47:14.807Z,96.5
2022-12-03T21:52:23.549Z,110.6
2022-12-03T21:54:26.480Z,129.3
2022-12-03T21:56:29.413Z,121.5
2022-12-03T21:58:32.345Z,141.6
2022-12-03T22:00:38.495Z,119.9
2022-12-03T22:02:43.146Z,111.6
2022-12-03T22:04:45.934Z,112.8
2022-12-03T22:06:48.876Z,101.7
2022-12-03T22:08:51.807Z,100.1
2022-12-03T22:10:54.839Z,90.1
2022-12-03T22:12:57.684Z,107.1
2022-12-03T22:15:03.867Z,141.2
2022-12-03T22:17:06.802Z,90.9
2022-12-03T22:19:09.706Z,87.7
2022-12-03T22:21:12.673Z,91
2022-12-03T22:23:15.591Z,140.7
2022-12-03T22:25:18.550Z,98.9
2022-12-03T22:27:21.470Z,112.1
2022-12-03T22:29:27.632Z,96.9
2022-12-03T22:31:30.685Z,135.2
2022-12-03T22:33:33.516Z,117.9
2022-12-03T22:35:36.451Z,103.5
2022-12-03T22:37:39.403Z,108.6
2022-12-03T22:39:42.347Z,148.7
2022-12-03T22:41:45.272Z,152.2
2022-12-03T22:50:21.607Z,156.5
2022-12-03T22:52:24.544Z,128.7
2022-12-03T22:54:27.490Z,146.8
2022-12-03T22:56:33.666Z,140.3
2022-12-03T23:00:39.535Z,128.9
2022-12-03T23:02:42.589Z,134.3
2022-12-03T23:04:45.445Z,130.3
2022-12-03T23:10:57.468Z,172.8
2022-12-03T23:15:03.384Z,146.1
2022-12-03T23:17:06.321Z,186.1
2022-12-03T23:23:15.144Z,140.5
2022-12-03T23:27:24.277Z,120.5
2022-12-03T23:29:27.226Z,135.6
2022-12-03T23:31:30.272Z,205.6
2022-12-03T23:33:38.241Z,146.5
2022-12-03T23:35:36.078Z,109.5
2022-12-03T23:37:39.028Z,143.2
2022-12-03T23:39:45.174Z,146.8
2022-12-03T23:41:48.125Z,139.2
2022-12-03T23:43:51.057Z,151.2
2022-12-03T23:44:54.172Z,126.5
2022-12-03T23:46:57.223Z,160.8
2022-12-03T23:49:00.081Z,170.5
2022-12-03T23:51:03.018Z,134.8
2022-12-03T23:53:09.179Z,120
2022-12-03T23:55:12.174Z,249
2022-12-03T23:57:15.098Z,108.1
2022-12-03T23:59:18.047Z,158.9
